sensor_id;sensor_type;location;lat;lon;timestamp;pressure;altitude;pressure_sealevel;temperature;humidity
70254;BME280;57649;42.968;1.608;2023-11-21T00:00:29;97495.03;;;9.05;100.00
70254;BME280;57649;42.968;1.608;2023-11-21T00:02:54;97479.66;;;9.08;100.00
70254;BME280;57649;42.968;1.608;2023-11-21T00:05:20;97502.03;;;9.06;100.00
70254;BME280;57649;42.968;1.608;2023-11-21T00:07:48;97503.81;;;8.98;100.00
70254;BME280;57649;42.968;1.608;2023-11-21T00:10:13;97506.22;;;9.09;100.00
70254;BME280;57649;42.968;1.608;2023-11-21T00:12:39;97496.19;;;9.03;100.00
70254;BME280;57649;42.968;1.608;2023-11-21T00:15:07;97486.69;;;9.09;100.00
70254;BME280;57649;42.968;1.608;2023-11-21T00:17:37;97499.19;;;9.08;100.00
70254;BME280;57649;42.968;1.608;2023-11-21T00:20:03;97499.84;;;9.02;100.00
70254;BME280;57649;42.968;1.608;2023-11-21T00:22:32;97506.53;;;9.06;100.00
70254;BME280;57649;42.968;1.608;2023-11-21T00:24:57;97499.03;;;9.10;100.00
70254;BME280;57649;42.968;1.608;2023-11-21T00:27:23;97497.69;;;9.05;100.00
70254;BME280;57649;42.968;1.608;2023-11-21T00:29:48;97506.69;;;9.04;100.00
70254;BME280;57649;42.968;1.608;2023-11-21T00:32:13;97492.53;;;8.86;100.00
70254;BME280;57649;42.968;1.608;2023-11-21T00:34:39;97497.19;;;8.84;100.00
70254;BME280;57649;42.968;1.608;2023-11-21T00:37:05;97493.00;;;8.81;100.00
70254;BME280;57649;42.968;1.608;2023-11-21T00:39:30;97497.34;;;8.82;100.00
70254;BME280;57649;42.968;1.608;2023-11-21T00:41:55;97499.84;;;8.84;100.00
70254;BME280;57649;42.968;1.608;2023-11-21T00:44:21;97493.31;;;8.78;100.00
70254;BME280;57649;42.968;1.608;2023-11-21T00:46:46;97498.75;;;8.69;100.00
70254;BME280;57649;42.968;1.608;2023-11-21T00:49:12;97485.31;;;8.60;100.00
70254;BME280;57649;42.968;1.608;2023-11-21T00:51:38;97515.19;;;8.64;100.00
70254;BME280;57649;42.968;1.608;2023-11-21T00:54:03;97486.75;;;8.73;100.00
70254;BME280;57649;42.968;1.608;2023-11-21T00:56:29;97494.38;;;8.67;100.00
70254;BME280;57649;42.968;1.608;2023-11-21T00:58:54;97485.69;;;8.47;100.00
70254;BME280;57649;42.968;1.608;2023-11-21T01:01:20;97483.50;;;8.43;100.00
70254;BME280;57649;42.968;1.608;2023-11-21T01:03:47;97481.19;;;8.30;100.00
70254;BME280;57649;42.968;1.608;2023-11-21T01:06:14;97477.97;;;8.26;100.00
70254;BME280;57649;42.968;1.608;2023-11-21T01:08:39;97487.34;;;8.31;100.00
70254;BME280;57649;42.968;1.608;2023-11-21T01:11:05;97490.25;;;8.19;100.00
70254;BME280;57649;42.968;1.608;2023-11-21T01:13:33;97491.53;;;8.15;100.00
70254;BME280;57649;42.968;1.608;2023-11-21T01:15:59;97490.31;;;8.27;100.00
70254;BME280;57649;42.968;1.608;2023-11-21T01:18:24;97491.91;;;8.20;100.00
70254;BME280;57649;42.968;1.608;2023-11-21T01:20:51;97484.50;;;7.96;100.00
70254;BME280;57649;42.968;1.608;2023-11-21T01:23:19;97478.22;;;7.87;100.00
70254;BME280;57649;42.968;1.608;2023-11-21T01:25:44;97470.22;;;7.87;100.00
70254;BME280;57649;42.968;1.608;2023-11-21T01:28:10;97471.16;;;7.96;100.00
70254;BME280;57649;42.968;1.608;2023-11-21T01:30:35;97461.44;;;8.05;100.00
70254;BME280;57649;42.968;1.608;2023-11-21T01:33:01;97453.88;;;8.00;100.00
70254;BME280;57649;42.968;1.608;2023-11-21T01:35:26;97449.91;;;7.86;100.00
70254;BME280;57649;42.968;1.608;2023-11-21T01:37:51;97452.72;;;7.85;100.00
70254;BME280;57649;42.968;1.608;2023-11-21T01:40:17;97452.16;;;7.81;100.00
70254;BME280;57649;42.968;1.608;2023-11-21T01:42:45;97454.56;;;7.84;100.00
70254;BME280;57649;42.968;1.608;2023-11-21T01:45:12;97441.19;;;7.66;100.00
70254;BME280;57649;42.968;1.608;2023-11-21T01:47:38;97427.41;;;7.71;100.00
70254;BME280;57649;42.968;1.608;2023-11-21T01:50:06;97430.63;;;7.93;100.00
70254;BME280;57649;42.968;1.608;2023-11-21T01:52:33;97431.53;;;7.83;100.00
70254;BME280;57649;42.968;1.608;2023-11-21T01:55:00;97427.66;;;7.78;100.00
70254;BME280;57649;42.968;1.608;2023-11-21T01:57:26;97417.88;;;7.68;100.00
70254;BME280;57649;42.968;1.608;2023-11-21T01:59:54;97421.88;;;7.82;100.00
70254;BME280;57649;42.968;1.608;2023-11-21T02:02:20;97416.91;;;7.87;100.00
70254;BME280;57649;42.968;1.608;2023-11-21T02:04:45;97401.63;;;7.89;100.00
70254;BME280;57649;42.968;1.608;2023-11-21T02:07:11;97410.34;;;7.82;100.00
70254;BME280;57649;42.968;1.608;2023-11-21T02:09:36;97397.44;;;7.87;100.00
70254;BME280;57649;42.968;1.608;2023-11-21T02:12:07;97404.66;;;7.95;100.00
70254;BME280;57649;42.968;1.608;2023-11-21T02:14:36;97405.66;;;7.94;100.00
70254;BME280;57649;42.968;1.608;2023-11-21T02:17:02;97395.00;;;7.94;100.00
70254;BME280;57649;42.968;1.608;2023-11-21T02:19:28;97391.03;;;7.98;100.00
70254;BME280;57649;42.968;1.608;2023-11-21T02:21:56;97400.78;;;8.07;100.00
70254;BME280;57649;42.968;1.608;2023-11-21T02:24:31;97384.41;;;8.02;100.00
70254;BME280;57649;42.968;1.608;2023-11-21T02:26:57;97380.09;;;8.01;100.00
70254;BME280;57649;42.968;1.608;2023-11-21T02:29:22;97383.28;;;8.04;100.00
70254;BME280;57649;42.968;1.608;2023-11-21T02:31:53;97379.47;;;8.07;100.00
70254;BME280;57649;42.968;1.608;2023-11-21T02:34:20;97380.13;;;8.09;100.00
70254;BME280;57649;42.968;1.608;2023-11-21T02:36:45;97366.81;;;8.09;100.00
70254;BME280;57649;42.968;1.608;2023-11-21T02:39:11;97356.63;;;8.04;100.00
70254;BME280;57649;42.968;1.608;2023-11-21T02:41:39;97362.16;;;8.11;100.00
70254;BME280;57649;42.968;1.608;2023-11-21T02:44:06;97366.44;;;8.04;100.00
70254;BME280;57649;42.968;1.608;2023-11-21T02:46:35;97360.94;;;7.87;100.00
70254;BME280;57649;42.968;1.608;2023-11-21T02:49:04;97358.88;;;7.63;100.00
70254;BME280;57649;42.968;1.608;2023-11-21T02:51:31;97367.81;;;7.72;100.00
70254;BME280;57649;42.968;1.608;2023-11-21T02:53:57;97362.75;;;7.69;100.00
70254;BME280;57649;42.968;1.608;2023-11-21T02:56:25;97359.03;;;7.62;100.00
70254;BME280;57649;42.968;1.608;2023-11-21T02:58:51;97354.84;;;7.59;100.00
70254;BME280;57649;42.968;1.608;2023-11-21T03:01:17;97347.91;;;7.48;100.00
70254;BME280;57649;42.968;1.608;2023-11-21T03:03:42;97351.47;;;7.39;100.00
70254;BME280;57649;42.968;1.608;2023-11-21T03:06:08;97367.72;;;7.64;100.00
70254;BME280;57649;42.968;1.608;2023-11-21T03:08:33;97378.03;;;7.77;100.00
70254;BME280;57649;42.968;1.608;2023-11-21T03:10:59;97377.25;;;7.84;100.00
70254;BME280;57649;42.968;1.608;2023-11-21T03:13:24;97373.22;;;7.80;100.00
70254;BME280;57649;42.968;1.608;2023-11-21T03:15:49;97374.44;;;7.68;100.00
70254;BME280;57649;42.968;1.608;2023-11-21T03:18:15;97371.81;;;7.58;100.00
70254;BME280;57649;42.968;1.608;2023-11-21T03:20:40;97367.13;;;7.70;100.00
70254;BME280;57649;42.968;1.608;2023-11-21T03:23:06;97358.34;;;7.60;100.00
70254;BME280;57649;42.968;1.608;2023-11-21T03:25:32;97367.81;;;7.72;100.00
70254;BME280;57649;42.968;1.608;2023-11-21T03:27:57;97364.13;;;7.55;100.00
70254;BME280;57649;42.968;1.608;2023-11-21T03:30:23;97357.03;;;7.46;100.00
70254;BME280;57649;42.968;1.608;2023-11-21T03:32:48;97361.44;;;7.37;100.00
70254;BME280;57649;42.968;1.608;2023-11-21T03:35:14;97358.38;;;7.32;100.00
70254;BME280;57649;42.968;1.608;2023-11-21T03:37:39;97358.94;;;7.54;100.00
70254;BME280;57649;42.968;1.608;2023-11-21T03:40:07;97361.00;;;7.60;100.00
70254;BME280;57649;42.968;1.608;2023-11-21T03:42:34;97360.03;;;7.61;100.00
70254;BME280;57649;42.968;1.608;2023-11-21T03:44:59;97353.78;;;7.70;100.00
70254;BME280;57649;42.968;1.608;2023-11-21T03:47:28;97347.31;;;7.72;100.00
70254;BME280;57649;42.968;1.608;2023-11-21T03:49:53;97348.63;;;7.68;100.00
70254;BME280;57649;42.968;1.608;2023-11-21T03:52:18;97339.78;;;7.68;100.00
70254;BME280;57649;42.968;1.608;2023-11-21T03:54:44;97350.66;;;7.75;100.00
70254;BME280;57649;42.968;1.608;2023-11-21T03:57:10;97336.13;;;7.69;100.00
70254;BME280;57649;42.968;1.608;2023-11-21T03:59:36;97341.94;;;7.82;100.00
70254;BME280;57649;42.968;1.608;2023-11-21T04:02:01;97332.19;;;7.73;100.00
70254;BME280;57649;42.968;1.608;2023-11-21T04:04:26;97335.75;;;7.82;100.00
70254;BME280;57649;42.968;1.608;2023-11-21T04:06:52;97331.03;;;7.94;100.00
70254;BME280;57649;42.968;1.608;2023-11-21T04:09:17;97328.81;;;7.89;100.00
70254;BME280;57649;42.968;1.608;2023-11-21T04:11:43;97308.25;;;7.81;100.00
70254;BME280;57649;42.968;1.608;2023-11-21T04:14:10;97319.84;;;7.72;100.00
70254;BME280;57649;42.968;1.608;2023-11-21T04:16:36;97304.91;;;7.79;100.00
70254;BME280;57649;42.968;1.608;2023-11-21T04:19:01;97298.81;;;7.87;100.00
70254;BME280;57649;42.968;1.608;2023-11-21T04:21:26;97294.09;;;7.81;100.00
70254;BME280;57649;42.968;1.608;2023-11-21T04:23:52;97299.34;;;7.72;100.00
70254;BME280;57649;42.968;1.608;2023-11-21T04:26:17;97295.09;;;7.80;100.00
70254;BME280;57649;42.968;1.608;2023-11-21T04:28:43;97295.41;;;7.77;100.00
70254;BME280;57649;42.968;1.608;2023-11-21T04:31:08;97293.56;;;7.77;100.00
70254;BME280;57649;42.968;1.608;2023-11-21T04:33:34;97286.69;;;7.75;100.00
70254;BME280;57649;42.968;1.608;2023-11-21T04:35:59;97291.75;;;7.78;100.00
70254;BME280;57649;42.968;1.608;2023-11-21T04:38:24;97282.66;;;7.88;100.00
70254;BME280;57649;42.968;1.608;2023-11-21T04:40:50;97270.66;;;7.84;100.00
70254;BME280;57649;42.968;1.608;2023-11-21T04:43:15;97270.38;;;7.69;100.00
70254;BME280;57649;42.968;1.608;2023-11-21T04:45:41;97265.09;;;7.78;100.00
70254;BME280;57649;42.968;1.608;2023-11-21T04:48:07;97267.84;;;7.68;100.00
70254;BME280;57649;42.968;1.608;2023-11-21T04:50:33;97258.56;;;7.72;100.00
70254;BME280;57649;42.968;1.608;2023-11-21T04:52:59;97251.88;;;7.68;100.00
70254;BME280;57649;42.968;1.608;2023-11-21T04:55:24;97260.97;;;7.65;100.00
70254;BME280;57649;42.968;1.608;2023-11-21T04:57:53;97254.19;;;7.71;100.00
70254;BME280;57649;42.968;1.608;2023-11-21T05:00:18;97262.44;;;7.60;100.00
70254;BME280;57649;42.968;1.608;2023-11-21T05:02:45;97265.56;;;7.55;100.00
70254;BME280;57649;42.968;1.608;2023-11-21T05:05:10;97267.56;;;7.53;100.00
70254;BME280;57649;42.968;1.608;2023-11-21T05:07:36;97276.44;;;7.62;100.00
70254;BME280;57649;42.968;1.608;2023-11-21T05:10:01;97268.16;;;7.65;100.00
70254;BME280;57649;42.968;1.608;2023-11-21T05:12:31;97269.16;;;7.64;100.00
70254;BME280;57649;42.968;1.608;2023-11-21T05:15:04;97264.94;;;7.79;100.00
70254;BME280;57649;42.968;1.608;2023-11-21T05:17:33;97257.31;;;7.84;100.00
70254;BME280;57649;42.968;1.608;2023-11-21T05:19:59;97260.66;;;8.04;100.00
70254;BME280;57649;42.968;1.608;2023-11-21T05:22:29;97266.16;;;8.11;100.00
70254;BME280;57649;42.968;1.608;2023-11-21T05:24:54;97256.97;;;8.05;100.00
70254;BME280;57649;42.968;1.608;2023-11-21T05:27:19;97260.56;;;8.22;100.00
70254;BME280;57649;42.968;1.608;2023-11-21T05:29:45;97257.56;;;8.17;100.00
70254;BME280;57649;42.968;1.608;2023-11-21T05:32:10;97257.97;;;8.04;100.00
70254;BME280;57649;42.968;1.608;2023-11-21T05:34:35;97253.63;;;8.03;100.00
70254;BME280;57649;42.968;1.608;2023-11-21T05:37:01;97251.22;;;8.18;100.00
70254;BME280;57649;42.968;1.608;2023-11-21T05:39:26;97264.66;;;8.35;100.00
70254;BME280;57649;42.968;1.608;2023-11-21T05:41:53;97262.63;;;8.28;100.00
70254;BME280;57649;42.968;1.608;2023-11-21T05:44:19;97258.34;;;8.36;100.00
70254;BME280;57649;42.968;1.608;2023-11-21T05:46:44;97249.28;;;8.46;100.00
70254;BME280;57649;42.968;1.608;2023-11-21T05:49:09;97255.00;;;8.34;100.00
70254;BME280;57649;42.968;1.608;2023-11-21T05:51:35;97251.94;;;8.46;100.00
70254;BME280;57649;42.968;1.608;2023-11-21T05:54:00;97255.13;;;8.50;100.00
70254;BME280;57649;42.968;1.608;2023-11-21T05:56:26;97251.81;;;8.56;100.00
70254;BME280;57649;42.968;1.608;2023-11-21T05:58:51;97256.19;;;8.39;100.00
70254;BME280;57649;42.968;1.608;2023-11-21T06:01:17;97245.56;;;8.74;100.00
70254;BME280;57649;42.968;1.608;2023-11-21T06:03:43;97256.34;;;8.64;100.00
70254;BME280;57649;42.968;1.608;2023-11-21T06:06:08;97239.00;;;8.68;100.00
70254;BME280;57649;42.968;1.608;2023-11-21T06:08:34;97243.53;;;8.67;100.00
70254;BME280;57649;42.968;1.608;2023-11-21T06:10:59;97261.81;;;8.54;100.00
70254;BME280;57649;42.968;1.608;2023-11-21T06:13:24;97250.84;;;8.57;100.00
70254;BME280;57649;42.968;1.608;2023-11-21T06:15:50;97249.97;;;8.57;100.00
70254;BME280;57649;42.968;1.608;2023-11-21T06:18:16;97263.91;;;8.42;100.00
70254;BME280;57649;42.968;1.608;2023-11-21T06:20:44;97258.56;;;8.42;100.00
70254;BME280;57649;42.968;1.608;2023-11-21T06:23:10;97257.53;;;8.35;100.00
70254;BME280;57649;42.968;1.608;2023-11-21T06:25:36;97253.31;;;8.33;100.00
70254;BME280;57649;42.968;1.608;2023-11-21T06:28:02;97264.28;;;8.29;100.00
70254;BME280;57649;42.968;1.608;2023-11-21T06:30:27;97257.31;;;8.28;100.00
70254;BME280;57649;42.968;1.608;2023-11-21T06:32:54;97259.31;;;8.35;100.00
70254;BME280;57649;42.968;1.608;2023-11-21T06:35:20;97247.75;;;8.44;100.00
70254;BME280;57649;42.968;1.608;2023-11-21T06:37:45;97258.56;;;8.42;100.00
70254;BME280;57649;42.968;1.608;2023-11-21T06:40:13;97260.47;;;8.50;100.00
70254;BME280;57649;42.968;1.608;2023-11-21T06:42:40;97252.78;;;8.55;100.00
70254;BME280;57649;42.968;1.608;2023-11-21T06:45:06;97263.31;;;8.57;100.00
70254;BME280;57649;42.968;1.608;2023-11-21T06:47:32;97254.19;;;8.59;100.00
70254;BME280;57649;42.968;1.608;2023-11-21T06:49:58;97249.44;;;8.53;100.00
70254;BME280;57649;42.968;1.608;2023-11-21T06:52:24;97251.16;;;8.62;100.00
70254;BME280;57649;42.968;1.608;2023-11-21T06:54:49;97254.56;;;8.73;100.00
70254;BME280;57649;42.968;1.608;2023-11-21T06:57:15;97257.53;;;8.70;100.00
70254;BME280;57649;42.968;1.608;2023-11-21T06:59:41;97256.94;;;8.84;100.00
70254;BME280;57649;42.968;1.608;2023-11-21T07:02:06;97257.81;;;8.93;100.00
70254;BME280;57649;42.968;1.608;2023-11-21T07:04:38;97256.34;;;9.06;100.00
70254;BME280;57649;42.968;1.608;2023-11-21T07:07:04;97253.66;;;8.98;100.00
70254;BME280;57649;42.968;1.608;2023-11-21T07:09:30;97256.94;;;8.84;100.00
70254;BME280;57649;42.968;1.608;2023-11-21T07:11:56;97250.25;;;8.80;100.00
70254;BME280;57649;42.968;1.608;2023-11-21T07:14:21;97254.34;;;8.66;100.00
70254;BME280;57649;42.968;1.608;2023-11-21T07:16:47;97257.53;;;8.61;100.00
70254;BME280;57649;42.968;1.608;2023-11-21T07:19:13;97246.13;;;8.51;100.00
70254;BME280;57649;42.968;1.608;2023-11-21T07:21:39;97259.53;;;8.41;100.00
70254;BME280;57649;42.968;1.608;2023-11-21T07:24:05;97257.31;;;8.28;100.00
70254;BME280;57649;42.968;1.608;2023-11-21T07:26:32;97261.47;;;8.31;100.00
70254;BME280;57649;42.968;1.608;2023-11-21T07:29:02;97264.66;;;8.35;100.00
70254;BME280;57649;42.968;1.608;2023-11-21T07:31:28;97269.00;;;8.36;100.00
70254;BME280;57649;42.968;1.608;2023-11-21T07:33:54;97258.78;;;8.49;100.00
70254;BME280;57649;42.968;1.608;2023-11-21T07:36:22;97265.63;;;8.52;100.00
70254;BME280;57649;42.968;1.608;2023-11-21T07:38:48;97263.59;;;8.45;100.00
70254;BME280;57649;42.968;1.608;2023-11-21T07:41:14;97260.97;;;8.54;100.00
70254;BME280;57649;42.968;1.608;2023-11-21T07:43:43;97265.88;;;8.66;100.00
70254;BME280;57649;42.968;1.608;2023-11-21T07:46:08;97258.56;;;8.69;100.00
70254;BME280;57649;42.968;1.608;2023-11-21T07:48:34;97266.28;;;8.80;100.00
70254;BME280;57649;42.968;1.608;2023-11-21T07:51:02;97278.81;;;8.88;100.00
70254;BME280;57649;42.968;1.608;2023-11-21T07:53:29;97278.56;;;9.07;100.00
70254;BME280;57649;42.968;1.608;2023-11-21T07:55:58;97287.03;;;8.94;100.00
70254;BME280;57649;42.968;1.608;2023-11-21T07:58:23;97296.31;;;8.82;100.00
70254;BME280;57649;42.968;1.608;2023-11-21T08:00:49;97294.97;;;8.78;100.00
70254;BME280;57649;42.968;1.608;2023-11-21T08:03:15;97305.94;;;8.75;100.00
70254;BME280;57649;42.968;1.608;2023-11-21T08:05:41;97307.63;;;8.76;100.00
70254;BME280;57649;42.968;1.608;2023-11-21T08:08:07;97293.16;;;8.86;100.00
70254;BME280;57649;42.968;1.608;2023-11-21T08:10:33;97320.19;;;8.83;100.00
70254;BME280;57649;42.968;1.608;2023-11-21T08:12:58;97317.06;;;8.96;100.00
70254;BME280;57649;42.968;1.608;2023-11-21T08:15:24;97320.88;;;8.94;100.00
70254;BME280;57649;42.968;1.608;2023-11-21T08:17:49;97311.13;;;9.11;100.00
70254;BME280;57649;42.968;1.608;2023-11-21T08:20:15;97311.75;;;9.04;100.00
70254;BME280;57649;42.968;1.608;2023-11-21T08:22:44;97298.38;;;8.96;100.00
70254;BME280;57649;42.968;1.608;2023-11-21T08:25:09;97318.91;;;8.96;100.00
70254;BME280;57649;42.968;1.608;2023-11-21T08:27:35;97318.25;;;9.02;100.00
70254;BME280;57649;42.968;1.608;2023-11-21T08:30:02;97303.78;;;9.13;100.00
70254;BME280;57649;42.968;1.608;2023-11-21T08:32:28;97299.88;;;8.99;100.00
70254;BME280;57649;42.968;1.608;2023-11-21T08:34:55;97296.75;;;9.12;100.00
70254;BME280;57649;42.968;1.608;2023-11-21T08:37:20;97291.19;;;8.97;100.00
70254;BME280;57649;42.968;1.608;2023-11-21T08:39:47;97299.00;;;8.90;100.00
70254;BME280;57649;42.968;1.608;2023-11-21T08:42:13;97303.66;;;8.88;100.00
70254;BME280;57649;42.968;1.608;2023-11-21T08:44:39;97306.97;;;8.82;100.00
70254;BME280;57649;42.968;1.608;2023-11-21T08:47:05;97307.38;;;8.95;100.00
70254;BME280;57649;42.968;1.608;2023-11-21T08:49:30;97299.34;;;8.87;100.00
70254;BME280;57649;42.968;1.608;2023-11-21T08:51:56;97298.06;;;8.99;100.00
70254;BME280;57649;42.968;1.608;2023-11-21T08:54:22;97304.06;;;9.01;100.00
70254;BME280;57649;42.968;1.608;2023-11-21T08:56:48;97314.59;;;9.03;100.00
70254;BME280;57649;42.968;1.608;2023-11-21T08:59:15;97318.47;;;9.09;100.00
70254;BME280;57649;42.968;1.608;2023-11-21T09:01:40;97302.78;;;9.14;100.00
70254;BME280;57649;42.968;1.608;2023-11-21T09:04:06;97309.78;;;9.15;100.00
70254;BME280;57649;42.968;1.608;2023-11-21T09:06:31;97306.47;;;9.21;100.00
70254;BME280;57649;42.968;1.608;2023-11-21T09:08:57;97314.69;;;9.36;100.00
70254;BME280;57649;42.968;1.608;2023-11-21T09:11:23;97314.19;;;9.32;100.00
70254;BME280;57649;42.968;1.608;2023-11-21T09:13:48;97318.38;;;9.35;100.00
70254;BME280;57649;42.968;1.608;2023-11-21T09:16:14;97327.78;;;9.47;100.00
70254;BME280;57649;42.968;1.608;2023-11-21T09:18:41;97317.88;;;9.31;100.00
70254;BME280;57649;42.968;1.608;2023-11-21T09:21:06;97316.06;;;9.48;100.00
70254;BME280;57649;42.968;1.608;2023-11-21T09:23:31;97313.25;;;9.50;100.00
70254;BME280;57649;42.968;1.608;2023-11-21T09:25:57;97314.41;;;9.55;100.00
70254;BME280;57649;42.968;1.608;2023-11-21T09:28:25;97308.59;;;9.68;100.00
70254;BME280;57649;42.968;1.608;2023-11-21T09:30:52;97312.91;;;9.61;100.00
70254;BME280;57649;42.968;1.608;2023-11-21T09:33:18;97315.28;;;9.64;100.00
70254;BME280;57649;42.968;1.608;2023-11-21T09:35:43;97309.63;;;9.67;100.00
70254;BME280;57649;42.968;1.608;2023-11-21T09:38:09;97315.28;;;9.72;100.00
70254;BME280;57649;42.968;1.608;2023-11-21T09:40:36;97306.97;;;9.83;100.00
70254;BME280;57649;42.968;1.608;2023-11-21T09:43:16;97322.00;;;9.93;100.00
70254;BME280;57649;42.968;1.608;2023-11-21T09:45:49;97323.00;;;9.92;100.00
70254;BME280;57649;42.968;1.608;2023-11-21T09:48:20;97330.53;;;9.96;100.00
70254;BME280;57649;42.968;1.608;2023-11-21T09:50:47;97327.16;;;9.86;100.00
70254;BME280;57649;42.968;1.608;2023-11-21T09:53:13;97328.19;;;9.93;100.00
70254;BME280;57649;42.968;1.608;2023-11-21T09:55:42;97335.03;;;9.88;100.00
70254;BME280;57649;42.968;1.608;2023-11-21T09:58:09;97337.84;;;9.94;100.00
70254;BME280;57649;42.968;1.608;2023-11-21T10:00:42;97337.34;;;9.82;100.00
70254;BME280;57649;42.968;1.608;2023-11-21T10:03:08;97339.72;;;9.86;100.00
70254;BME280;57649;42.968;1.608;2023-11-21T10:05:34;97334.88;;;9.97;100.00
70254;BME280;57649;42.968;1.608;2023-11-21T10:08:00;97332.53;;;10.02;100.00
70254;BME280;57649;42.968;1.608;2023-11-21T10:10:27;97324.34;;;10.04;100.00
70254;BME280;57649;42.968;1.608;2023-11-21T10:12:55;97335.03;;;9.96;100.00
70254;BME280;57649;42.968;1.608;2023-11-21T10:15:22;97331.84;;;9.92;100.00
70254;BME280;57649;42.968;1.608;2023-11-21T10:17:52;97338.56;;;10.05;100.00
70254;BME280;57649;42.968;1.608;2023-11-21T10:20:19;97330.50;;;10.13;100.00
70254;BME280;57649;42.968;1.608;2023-11-21T10:22:45;97326.34;;;10.02;100.00
70254;BME280;57649;42.968;1.608;2023-11-21T10:25:11;97322.66;;;10.03;100.00
70254;BME280;57649;42.968;1.608;2023-11-21T10:27:40;97317.84;;;10.15;100.00
70254;BME280;57649;42.968;1.608;2023-11-21T10:30:07;97317.13;;;10.13;100.00
70254;BME280;57649;42.968;1.608;2023-11-21T10:32:41;97312.13;;;10.18;100.00
70254;BME280;57649;42.968;1.608;2023-11-21T10:35:08;97317.81;;;10.23;100.00
70254;BME280;57649;42.968;1.608;2023-11-21T10:37:38;97314.97;;;10.16;100.00
70254;BME280;57649;42.968;1.608;2023-11-21T10:40:07;97307.44;;;10.20;100.00
70254;BME280;57649;42.968;1.608;2023-11-21T10:42:34;97310.63;;;10.07;100.00
70254;BME280;57649;42.968;1.608;2023-11-21T10:44:59;97303.09;;;10.11;100.00
70254;BME280;57649;42.968;1.608;2023-11-21T10:47:26;97306.13;;;10.32;100.00
70254;BME280;57649;42.968;1.608;2023-11-21T10:49:52;97302.09;;;10.20;100.00
70254;BME280;57649;42.968;1.608;2023-11-21T10:52:20;97308.13;;;10.22;100.00
70254;BME280;57649;42.968;1.608;2023-11-21T10:54:46;97298.59;;;10.28;100.00
70254;BME280;57649;42.968;1.608;2023-11-21T10:57:13;97305.59;;;10.12;100.00
70254;BME280;57649;42.968;1.608;2023-11-21T10:59:46;97301.28;;;10.11;100.00
70254;BME280;57649;42.968;1.608;2023-11-21T11:02:21;97307.44;;;10.28;100.00
70254;BME280;57649;42.968;1.608;2023-11-21T11:04:48;97292.91;;;10.14;100.00
70254;BME280;57649;42.968;1.608;2023-11-21T11:07:14;97303.28;;;10.17;100.00
70254;BME280;57649;42.968;1.608;2023-11-21T11:09:41;97298.25;;;10.23;100.00
70254;BME280;57649;42.968;1.608;2023-11-21T11:12:08;97304.44;;;10.23;100.00
70254;BME280;57649;42.968;1.608;2023-11-21T11:14:35;97299.25;;;10.21;100.00
70254;BME280;57649;42.968;1.608;2023-11-21T11:17:01;97300.28;;;10.20;100.00
70254;BME280;57649;42.968;1.608;2023-11-21T11:19:27;97294.06;;;10.20;100.00
70254;BME280;57649;42.968;1.608;2023-11-21T11:22:12;97283.56;;;10.18;100.00
70254;BME280;57649;42.968;1.608;2023-11-21T11:24:52;97294.41;;;10.09;100.00
70254;BME280;57649;42.968;1.608;2023-11-21T11:32:58;97273.38;;;10.06;100.00
70254;BME280;57649;42.968;1.608;2023-11-21T11:35:37;97274.19;;;9.90;100.00
70254;BME280;57649;42.968;1.608;2023-11-21T11:38:03;97269.84;;;9.80;100.00
70254;BME280;57649;42.968;1.608;2023-11-21T11:40:44;97264.34;;;9.90;100.00
70254;BME280;57649;42.968;1.608;2023-11-21T11:43:10;97275.53;;;9.94;100.00
70254;BME280;57649;42.968;1.608;2023-11-21T11:45:37;97276.84;;;9.98;100.00
70254;BME280;57649;42.968;1.608;2023-11-21T11:48:06;97271.00;;;9.94;100.00
70254;BME280;57649;42.968;1.608;2023-11-21T11:50:32;97268.34;;;10.02;100.00
70254;BME280;57649;42.968;1.608;2023-11-21T11:53:12;97261.81;;;10.05;100.00
70254;BME280;57649;42.968;1.608;2023-11-21T11:55:38;97271.69;;;10.05;100.00
70254;BME280;57649;42.968;1.608;2023-11-21T11:58:06;97273.19;;;10.15;100.00
70254;BME280;57649;42.968;1.608;2023-11-21T12:03:00;97267.81;;;10.07;100.00
70254;BME280;57649;42.968;1.608;2023-11-21T12:05:31;97266.00;;;9.99;100.00
70254;BME280;57649;42.968;1.608;2023-11-21T12:08:00;97275.19;;;10.05;100.00
70254;BME280;57649;42.968;1.608;2023-11-21T12:10:31;97258.47;;;10.03;100.00
70254;BME280;57649;42.968;1.608;2023-11-21T12:12:59;97252.78;;;9.98;100.00
70254;BME280;57649;42.968;1.608;2023-11-21T12:15:26;97251.81;;;9.99;100.00
70254;BME280;57649;42.968;1.608;2023-11-21T12:17:54;97252.13;;;9.79;100.00
70254;BME280;57649;42.968;1.608;2023-11-21T12:20:21;97261.66;;;9.90;100.00
70254;BME280;57649;42.968;1.608;2023-11-21T12:25:40;97260.16;;;9.88;100.00
70254;BME280;57649;42.968;1.608;2023-11-21T12:28:06;97265.84;;;9.93;100.00
70254;BME280;57649;42.968;1.608;2023-11-21T12:30:34;97263.00;;;9.86;100.00
70254;BME280;57649;42.968;1.608;2023-11-21T12:33:01;97268.66;;;9.83;100.00
70254;BME280;57649;42.968;1.608;2023-11-21T12:35:29;97267.53;;;9.86;100.00
70254;BME280;57649;42.968;1.608;2023-11-21T12:37:55;97270.84;;;9.88;100.00
70254;BME280;57649;42.968;1.608;2023-11-21T12:40:25;97262.19;;;9.86;100.00
70254;BME280;57649;42.968;1.608;2023-11-21T12:42:56;97271.19;;;9.85;100.00
70254;BME280;57649;42.968;1.608;2023-11-21T12:45:26;97277.88;;;9.89;100.00
70254;BME280;57649;42.968;1.608;2023-11-21T12:47:59;97270.19;;;9.77;100.00
70254;BME280;57649;42.968;1.608;2023-11-21T12:50:30;97269.84;;;9.80;100.00
70254;BME280;57649;42.968;1.608;2023-11-21T12:53:01;97270.34;;;9.68;100.00
70254;BME280;57649;42.968;1.608;2023-11-21T12:55:32;97264.19;;;9.67;100.00
70254;BME280;57649;42.968;1.608;2023-11-21T12:58:01;97263.31;;;9.58;100.00
70254;BME280;57649;42.968;1.608;2023-11-21T13:00:38;97270.16;;;9.61;100.00
70254;BME280;57649;42.968;1.608;2023-11-21T13:03:05;97275.81;;;9.58;100.00
70254;BME280;57649;42.968;1.608;2023-11-21T13:05:33;97270.47;;;9.58;100.00
70254;BME280;57649;42.968;1.608;2023-11-21T13:08:02;97272.19;;;9.67;100.00